createdAt,value
2023-01-17T00:01:48.862Z,97193.31
2023-01-17T00:04:33.912Z,97209.47
2023-01-17T00:07:20.752Z,97208.22
2023-01-17T00:09:54.556Z,97203.75
2023-01-17T00:12:23.727Z,97204.53
2023-01-17T00:14:53.341Z,97210.19
2023-01-17T00:17:21.208Z,97205.38
2023-01-17T00:20:06.271Z,97202.22
2023-01-17T00:22:53.570Z,97204.19
2023-01-17T00:25:38.050Z,97204.56
2023-01-17T00:28:05.766Z,97208.00
2023-01-17T00:30:33.025Z,97205.94
2023-01-17T00:33:00.216Z,97208.13
2023-01-17T00:35:28.540Z,97211.81
2023-01-17T00:38:04.398Z,97213.06
2023-01-17T00:40:31.195Z,97214.66
2023-01-17T00:43:16.814Z,97214.53
2023-01-17T00:46:03.318Z,97224.97
2023-01-17T00:48:48.977Z,97226.34
2023-01-17T00:51:34.267Z,97230.22
2023-01-17T00:54:21.079Z,97218.22
2023-01-17T00:57:06.614Z,97227.75
2023-01-17T00:59:51.831Z,97231.31
2023-01-17T01:02:37.329Z,97226.78
2023-01-17T01:05:23.580Z,96978.22
2023-01-17T01:08:09.147Z,96979.16
2023-01-17T01:10:55.888Z,97072.22
2023-01-17T01:13:42.232Z,96958.06
2023-01-17T01:16:27.795Z,96839.91
2023-01-17T01:19:13.271Z,96856.63
2023-01-17T01:21:58.766Z,96961.59
2023-01-17T01:24:44.001Z,97076.66
2023-01-17T01:27:31.014Z,97123.59
2023-01-17T01:30:16.595Z,97154.16
2023-01-17T01:33:01.876Z,97163.56
2023-01-17T01:35:29.920Z,97172.78
2023-01-17T01:37:57.815Z,97173.13
2023-01-17T01:40:25.695Z,97174.31
2023-01-17T01:42:56.796Z,97174.88
2023-01-17T01:45:26.716Z,97184.94
2023-01-17T01:47:58.312Z,97189.97
2023-01-17T01:50:27.407Z,97194.59
2023-01-17T01:53:00.059Z,97201.88
2023-01-17T01:55:32.400Z,97209.47
2023-01-17T01:58:09.733Z,97207.88
2023-01-17T02:00:40.836Z,97213.72
2023-01-17T02:03:12.523Z,97218.34
2023-01-17T02:05:42.476Z,97229.03
2023-01-17T02:08:14.073Z,97240.91
2023-01-17T02:10:43.943Z,97243.50
2023-01-17T02:13:16.184Z,97244.88
2023-01-17T02:15:57.974Z,97246.94
2023-01-17T02:18:36.765Z,97249.41
2023-01-17T02:21:22.315Z,97246.88
2023-01-17T02:24:33.657Z,97254.00
2023-01-17T02:27:06.336Z,97246.53
2023-01-17T02:33:12.706Z,97254.78
2023-01-17T02:35:49.308Z,97266.22
2023-01-17T02:38:31.520Z,97264.78
2023-01-17T02:41:05.231Z,97258.53
2023-01-17T02:43:33.955Z,97272.00
2023-01-17T02:46:01.684Z,97278.03
2023-01-17T02:48:33.957Z,97279.09
2023-01-17T02:51:28.729Z,97278.13
2023-01-17T02:54:12.563Z,97279.84
2023-01-17T02:56:50.576Z,97289.81
2023-01-17T02:59:34.524Z,97298.25
2023-01-17T03:02:11.920Z,97310.00
2023-01-17T03:04:48.077Z,97321.34
2023-01-17T03:07:20.673Z,97325.50
2023-01-17T03:09:53.489Z,97323.75
2023-01-17T03:12:21.702Z,97333.84
2023-01-17T03:14:49.510Z,97344.41
2023-01-17T03:17:17.521Z,97352.00
2023-01-17T03:19:46.675Z,97379.47
2023-01-17T03:22:14.415Z,97362.38
2023-01-17T03:24:42.167Z,97371.72
2023-01-17T03:27:11.335Z,97371.41
2023-01-17T03:29:39.164Z,97372.75
2023-01-17T03:32:07.349Z,97390.38
2023-01-17T03:34:35.145Z,97390.03
2023-01-17T03:37:04.472Z,97388.50
2023-01-17T03:39:32.298Z,97399.53
2023-01-17T03:42:00.138Z,97400.44
2023-01-17T03:44:27.870Z,97397.91
2023-01-17T03:46:55.615Z,97395.13
2023-01-17T03:49:23.377Z,97408.06
2023-01-17T03:51:51.162Z,97400.66
2023-01-17T03:54:20.265Z,97400.00
2023-01-17T03:56:47.997Z,97398.09
2023-01-17T03:59:15.712Z,97401.13
2023-01-17T04:01:43.609Z,97409.41
2023-01-17T04:04:11.378Z,97407.63
2023-01-17T04:06:39.119Z,97418.44
2023-01-17T04:09:06.872Z,97426.50
2023-01-17T04:11:36.072Z,97430.19
2023-01-17T04:14:03.944Z,97425.94
2023-01-17T04:16:33.166Z,97432.06
2023-01-17T04:19:01.016Z,97434.25
2023-01-17T04:21:28.886Z,97440.13
2023-01-17T04:23:56.736Z,97442.84
2023-01-17T04:26:24.556Z,97454.09
2023-01-17T04:28:53.772Z,97456.59
2023-01-17T04:31:21.719Z,97463.69
2023-01-17T04:33:49.481Z,97464.56
2023-01-17T04:36:17.974Z,97466.97
2023-01-17T04:38:45.791Z,97469.88
2023-01-17T04:41:13.599Z,97468.50
2023-01-17T04:43:41.360Z,97473.47
2023-01-17T04:46:11.182Z,97471.66
2023-01-17T04:48:39.276Z,97477.34
2023-01-17T04:51:07.389Z,97479.03
2023-01-17T04:53:35.225Z,97481.81
2023-01-17T04:56:03.073Z,97479.44
2023-01-17T04:58:31.339Z,97494.19
2023-01-17T05:01:02.870Z,97483.31
2023-01-17T05:03:32.604Z,97491.56
2023-01-17T05:06:00.585Z,97497.41
2023-01-17T05:08:28.767Z,97492.19
2023-01-17T05:10:56.554Z,97504.53
2023-01-17T05:13:24.382Z,97501.50
2023-01-17T05:15:52.387Z,97506.38
2023-01-17T05:18:20.584Z,97509.91
2023-01-17T05:20:57.595Z,97516.91
2023-01-17T05:23:25.327Z,97514.59
2023-01-17T05:25:53.067Z,97536.41
2023-01-17T05:28:20.897Z,97556.75
2023-01-17T05:30:48.787Z,97544.56
2023-01-17T05:33:16.578Z,97568.75
2023-01-17T05:35:44.460Z,97578.06
2023-01-17T05:38:13.590Z,97593.28
2023-01-17T05:40:41.328Z,97528.66
2023-01-17T05:43:10.047Z,97598.63
2023-01-17T05:45:38.010Z,97611.72
2023-01-17T05:48:06.596Z,97615.25
2023-01-17T05:50:36.537Z,97624.63
2023-01-17T05:53:07.506Z,97642.03
2023-01-17T05:55:37.864Z,97633.44
2023-01-17T05:58:07.258Z,97643.34
2023-01-17T06:00:34.959Z,97639.47
2023-01-17T06:03:02.995Z,97642.97
2023-01-17T06:05:31.872Z,97657.06
2023-01-17T06:07:59.637Z,97694.78
2023-01-17T06:10:28.233Z,97694.88
2023-01-17T06:13:05.790Z,97683.59
2023-01-17T06:15:34.014Z,97691.06
2023-01-17T06:18:05.919Z,97700.09
2023-01-17T06:20:34.321Z,97705.75
2023-01-17T06:23:04.234Z,97705.25
2023-01-17T06:25:36.432Z,97706.03
2023-01-17T06:28:06.179Z,97713.34
2023-01-17T06:30:34.482Z,97711.94
2023-01-17T06:33:02.379Z,97714.72
2023-01-17T06:35:30.490Z,97713.50
2023-01-17T06:37:59.754Z,97727.38
2023-01-17T06:40:28.862Z,97744.38
2023-01-17T06:43:01.059Z,97725.97
2023-01-17T06:45:30.673Z,97726.97
2023-01-17T06:47:59.219Z,97716.47
2023-01-17T06:50:27.399Z,97707.16
2023-01-17T06:52:57.315Z,97721.66
2023-01-17T06:55:25.927Z,97734.66
2023-01-17T06:57:54.621Z,97754.13
2023-01-17T07:00:23.148Z,97764.31
2023-01-17T07:02:52.884Z,97771.50
2023-01-17T07:05:20.978Z,97768.00
2023-01-17T07:07:49.229Z,97778.91
2023-01-17T07:10:17.640Z,97786.84
2023-01-17T07:12:45.446Z,97791.91
2023-01-17T07:15:14.009Z,97800.75
2023-01-17T07:17:41.883Z,97800.63
2023-01-17T07:20:12.059Z,97808.47
2023-01-17T07:22:39.889Z,97804.56
2023-01-17T07:25:08.556Z,97822.88
2023-01-17T07:27:36.318Z,97822.13
2023-01-17T07:30:04.277Z,97828.31
2023-01-17T07:32:32.139Z,97831.31
2023-01-17T07:34:59.923Z,97834.28
2023-01-17T07:37:29.056Z,97836.91
2023-01-17T07:39:56.943Z,97847.06
2023-01-17T07:42:24.776Z,97851.81
2023-01-17T07:44:52.805Z,97859.19
2023-01-17T07:47:21.065Z,97863.84
2023-01-17T07:49:48.811Z,97863.59
2023-01-17T07:52:18.212Z,97861.47
2023-01-17T07:54:47.588Z,97854.59
2023-01-17T07:57:15.454Z,97879.50
2023-01-17T07:59:43.295Z,97864.44
2023-01-17T08:02:18.579Z,97870.63
2023-01-17T08:04:46.407Z,97876.75
2023-01-17T08:07:14.519Z,97870.31
2023-01-17T08:09:43.100Z,97878.63
2023-01-17T08:12:12.211Z,97882.13
2023-01-17T08:14:39.975Z,97875.47
2023-01-17T08:17:07.782Z,97881.91
2023-01-17T08:19:35.621Z,97880.81
2023-01-17T08:22:03.423Z,97889.91
2023-01-17T08:24:31.263Z,97894.13
2023-01-17T08:26:59.037Z,97904.31
2023-01-17T08:29:28.254Z,97909.66
2023-01-17T08:31:56.309Z,97924.47
2023-01-17T08:34:24.094Z,97930.50
2023-01-17T08:36:53.888Z,97931.19
2023-01-17T08:39:22.395Z,97930.34
2023-01-17T08:41:50.162Z,97942.72
2023-01-17T08:44:19.884Z,97948.38
2023-01-17T08:46:49.038Z,97947.03
2023-01-17T08:49:16.819Z,97955.75
2023-01-17T08:51:44.545Z,97958.78
2023-01-17T08:54:15.044Z,97969.03
2023-01-17T08:56:43.763Z,97980.31
2023-01-17T08:59:12.374Z,97980.69
2023-01-17T09:01:41.743Z,97977.78
2023-01-17T09:04:11.968Z,97987.59
2023-01-17T09:06:41.029Z,97987.75
2023-01-17T09:09:11.025Z,97988.03
2023-01-17T09:11:39.448Z,97994.22
2023-01-17T09:14:07.319Z,97997.78
2023-01-17T09:16:35.417Z,97994.97
2023-01-17T09:19:03.262Z,97996.97
2023-01-17T09:21:32.549Z,98002.72
2023-01-17T09:24:00.368Z,97990.00
2023-01-17T09:26:29.961Z,97996.59
2023-01-17T09:28:58.689Z,97989.31
2023-01-17T09:31:27.976Z,97990.28
2023-01-17T09:33:57.388Z,97992.47
2023-01-17T09:36:28.714Z,97996.59
2023-01-17T09:38:59.069Z,97996.88
2023-01-17T09:41:29.592Z,98000.81
2023-01-17T09:44:04.120Z,98003.94
2023-01-17T09:46:37.861Z,98010.75
2023-01-17T09:49:09.617Z,98017.31
2023-01-17T09:51:37.977Z,98024.13
2023-01-17T09:54:07.269Z,98022.19
2023-01-17T09:56:42.247Z,98037.50
2023-01-17T09:59:33.071Z,98037.53
2023-01-17T10:02:18.822Z,98037.09
2023-01-17T10:05:03.764Z,98050.63
2023-01-17T10:07:42.804Z,98042.75
2023-01-17T10:10:29.614Z,98049.72
2023-01-17T10:13:04.967Z,98056.59
2023-01-17T10:15:45.691Z,98045.91
2023-01-17T10:18:44.432Z,98059.09
2023-01-17T10:21:23.335Z,98061.81
2023-01-17T10:24:16.611Z,98062.00
2023-01-17T10:26:49.875Z,98059.31
2023-01-17T10:29:20.275Z,98064.94
2023-01-17T10:31:55.255Z,98067.97
2023-01-17T10:34:29.305Z,98078.88
2023-01-17T10:37:02.908Z,98066.03
2023-01-17T10:39:32.123Z,98082.56
2023-01-17T10:42:08.439Z,98079.88
2023-01-17T10:44:41.828Z,98086.88
2023-01-17T10:47:19.277Z,98084.03
2023-01-17T10:49:51.925Z,98078.56
2023-01-17T10:52:28.962Z,98085.59
2023-01-17T10:55:11.046Z,98086.88
2023-01-17T10:57:43.314Z,98077.88
2023-01-17T11:00:31.977Z,98073.97
2023-01-17T11:03:02.023Z,98082.47
2023-01-17T11:05:32.294Z,98087.81
2023-01-17T11:08:02.217Z,98087.25
2023-01-17T11:10:54.000Z,98088.22
2023-01-17T11:13:27.416Z,98087.34
2023-01-17T11:15:57.910Z,98093.13
2023-01-17T11:18:28.689Z,98082.31
2023-01-17T11:21:12.810Z,98092.72
2023-01-17T11:23:43.105Z,98086.34
2023-01-17T11:26:13.798Z,98088.91
2023-01-17T11:28:43.130Z,98092.66
2023-01-17T11:31:26.880Z,98095.13
2023-01-17T11:34:10.363Z,98095.72
2023-01-17T11:36:38.267Z,98095.91
2023-01-17T11:39:19.577Z,98108.19
2023-01-17T11:41:48.765Z,98103.94
2023-01-17T11:44:26.798Z,98103.94
2023-01-17T11:47:16.978Z,98098.69
2023-01-17T11:49:46.901Z,98093.91
2023-01-17T11:52:23.366Z,98095.16
2023-01-17T11:54:53.819Z,98094.41
2023-01-17T11:57:25.714Z,98096.88
2023-01-17T12:00:04.646Z,98094.88
2023-01-17T12:02:56.225Z,98106.84
2023-01-17T12:05:41.024Z,98093.75
2023-01-17T12:08:18.948Z,98094.00
2023-01-17T12:10:57.053Z,98093.84
2023-01-17T12:13:57.511Z,98108.41
2023-01-17T12:16:44.756Z,98101.69
2023-01-17T12:19:36.615Z,98104.06
2023-01-17T12:22:22.525Z,98089.06
2023-01-17T12:25:07.210Z,98094.25
2023-01-17T12:27:45.344Z,98092.22
2023-01-17T12:30:26.124Z,98099.31
2023-01-17T12:33:12.080Z,98097.94
2023-01-17T12:35:46.228Z,98105.69
2023-01-17T12:38:31.700Z,98106.47
2023-01-17T12:41:07.234Z,98115.22
2023-01-17T12:43:37.985Z,98121.28
2023-01-17T12:46:13.154Z,98122.19
2023-01-17T12:48:42.480Z,98119.56
2023-01-17T12:51:17.975Z,98118.31
2023-01-17T12:53:51.853Z,98121.09
2023-01-17T12:56:25.608Z,98116.00
2023-01-17T12:58:56.861Z,98116.53
2023-01-17T13:01:30.394Z,98111.34
2023-01-17T13:04:17.833Z,98129.19
2023-01-17T13:07:01.632Z,98124.56
2023-01-17T13:09:34.207Z,98118.94
2023-01-17T13:12:06.105Z,98126.91
2023-01-17T13:14:34.452Z,98125.97
2023-01-17T13:17:21.754Z,98125.00
2023-01-17T13:19:58.999Z,98128.47
2023-01-17T13:22:27.823Z,98131.84
2023-01-17T13:25:03.880Z,98139.31
2023-01-17T13:28:02.936Z,98133.72
2023-01-17T13:30:56.979Z,98143.34
2023-01-17T13:33:36.040Z,98139.25
2023-01-17T13:36:20.314Z,98143.34
2023-01-17T13:39:08.762Z,98144.97
2023-01-17T13:41:48.382Z,98151.72
2023-01-17T13:44:25.426Z,98158.75
2023-01-17T13:46:58.714Z,98160.66
2023-01-17T13:49:35.208Z,98163.41
2023-01-17T13:52:09.660Z,98174.34
2023-01-17T13:54:46.109Z,98170.00
2023-01-17T13:57:42.101Z,98170.81
2023-01-17T14:00:58.913Z,98175.63
2023-01-17T14:04:12.483Z,98178.69
2023-01-17T14:06:43.806Z,98182.28
2023-01-17T14:09:20.338Z,98180.53
2023-01-17T14:11:58.382Z,98183.31
2023-01-17T14:14:51.958Z,98177.88
2023-01-17T14:17:51.561Z,98183.72
2023-01-17T14:20:49.244Z,98181.88
2023-01-17T14:23:39.486Z,98189.00
2023-01-17T14:26:46.956Z,98180.34
2023-01-17T14:29:52.429Z,98189.31
2023-01-17T14:32:23.143Z,98176.72
2023-01-17T14:34:52.801Z,98187.47
2023-01-17T14:37:46.520Z,98187.84
2023-01-17T14:40:20.460Z,98186.28
2023-01-17T14:42:55.493Z,98184.84
2023-01-17T14:45:28.520Z,98181.19
2023-01-17T14:47:58.777Z,98188.38
2023-01-17T14:50:29.279Z,98194.47
2023-01-17T14:53:28.197Z,98196.56
2023-01-17T14:55:59.632Z,98201.38
2023-01-17T14:58:31.026Z,98207.84
2023-01-17T15:01:02.591Z,98194.69
2023-01-17T15:03:34.583Z,98192.19
2023-01-17T15:06:11.751Z,98195.25
2023-01-17T15:08:40.265Z,98188.56
2023-01-17T15:11:12.096Z,98199.09
2023-01-17T15:13:45.734Z,98196.53
2023-01-17T15:16:24.126Z,98197.66
2023-01-17T15:18:52.639Z,98194.47
2023-01-17T15:21:22.309Z,98196.84
2023-01-17T15:23:53.774Z,98195.19
2023-01-17T15:26:24.371Z,98197.28
2023-01-17T15:28:54.439Z,98200.34
2023-01-17T15:31:25.738Z,98204.44
2023-01-17T15:33:57.360Z,98204.25
2023-01-17T15:36:33.039Z,98202.41
2023-01-17T15:39:04.371Z,98218.41
2023-01-17T15:41:35.977Z,98217.47
2023-01-17T15:44:06.532Z,98213.16
2023-01-17T15:46:42.856Z,98210.44
2023-01-17T15:49:19.557Z,98221.41
2023-01-17T15:51:50.958Z,98216.47
2023-01-17T15:54:40.505Z,98222.13
2023-01-17T15:57:23.548Z,98220.81
2023-01-17T15:59:56.750Z,98223.13
2023-01-17T16:02:30.513Z,98214.59
2023-01-17T16:04:58.698Z,98220.81
2023-01-17T16:07:34.986Z,98226.69
2023-01-17T16:10:09.078Z,98233.91
2023-01-17T16:12:36.893Z,98236.31
2023-01-17T16:15:12.684Z,98251.03
2023-01-17T16:17:42.632Z,98257.50
2023-01-17T16:20:16.030Z,98266.03
2023-01-17T16:22:44.728Z,98268.19
2023-01-17T16:25:17.873Z,98269.03
2023-01-17T16:27:46.198Z,98266.25
2023-01-17T16:30:17.643Z,98265.63
2023-01-17T16:32:46.878Z,98269.38
2023-01-17T16:35:18.949Z,98263.56
2023-01-17T16:37:50.235Z,98267.03
2023-01-17T16:40:18.651Z,98256.69
2023-01-17T16:42:47.088Z,98260.22
2023-01-17T16:45:17.172Z,98265.63
2023-01-17T16:47:46.564Z,98268.78
2023-01-17T16:50:16.468Z,98272.06
2023-01-17T16:52:44.458Z,98265.13
2023-01-17T16:55:15.086Z,98270.47
2023-01-17T16:57:43.001Z,98274.78
2023-01-17T17:00:13.123Z,98276.84
2023-01-17T17:02:42.382Z,98280.78
2023-01-17T17:05:11.382Z,98282.84
2023-01-17T17:07:42.973Z,98283.75
2023-01-17T17:10:11.491Z,98279.78
2023-01-17T17:12:39.309Z,98279.78
2023-01-17T17:15:08.135Z,98282.19
2023-01-17T17:17:36.906Z,98286.59
2023-01-17T17:20:09.622Z,98287.81
2023-01-17T17:22:37.525Z,98292.00
2023-01-17T17:25:06.318Z,98295.63
2023-01-17T17:27:34.160Z,98287.91
2023-01-17T17:30:02.006Z,98291.06
2023-01-17T17:32:30.882Z,98288.53
2023-01-17T17:34:58.640Z,98299.94
2023-01-17T17:37:28.928Z,98293.09
2023-01-17T17:39:56.955Z,98289.41
2023-01-17T17:42:25.564Z,98297.59
2023-01-17T17:44:53.623Z,98287.31
2023-01-17T17:47:21.464Z,98289.75
2023-01-17T17:49:49.218Z,98299.88
2023-01-17T17:52:17.082Z,98293.91
2023-01-17T17:54:46.161Z,98299.47
2023-01-17T17:57:13.866Z,98293.38
2023-01-17T17:59:41.621Z,98301.53
2023-01-17T18:02:11.553Z,98308.38
2023-01-17T18:04:39.461Z,98303.13
2023-01-17T18:07:07.276Z,98306.78
2023-01-17T18:09:35.141Z,98307.28
2023-01-17T18:12:04.339Z,98307.31
2023-01-17T18:14:32.363Z,98313.94
2023-01-17T18:17:00.096Z,98309.59
2023-01-17T18:19:27.979Z,98310.44
2023-01-17T18:21:55.809Z,98316.56
2023-01-17T18:24:25.247Z,98323.88
2023-01-17T18:26:55.930Z,98336.75
2023-01-17T18:29:26.810Z,98331.75
2023-01-17T18:31:55.403Z,98332.78
2023-01-17T18:34:24.655Z,98325.75
2023-01-17T18:36:53.096Z,98322.28
2023-01-17T18:39:22.025Z,98329.47
2023-01-17T18:41:50.062Z,98333.13
2023-01-17T18:44:21.740Z,98333.13
2023-01-17T18:46:51.508Z,98332.34
2023-01-17T18:49:19.510Z,98328.69
2023-01-17T18:51:50.584Z,98324.16
2023-01-17T18:54:19.792Z,98333.63
2023-01-17T18:56:47.843Z,98337.06
2023-01-17T18:59:18.194Z,98341.19
2023-01-17T19:01:46.250Z,98346.22
2023-01-17T19:04:17.204Z,98357.16
2023-01-17T19:06:46.905Z,98354.41
2023-01-17T19:09:16.355Z,98362.16
2023-01-17T19:11:45.096Z,98363.56
2023-01-17T19:14:14.364Z,98360.03
2023-01-17T19:16:42.960Z,98357.19
2023-01-17T19:19:13.044Z,98355.03
2023-01-17T19:21:42.268Z,98362.59
2023-01-17T19:24:12.979Z,98357.94
2023-01-17T19:26:40.978Z,98356.03
2023-01-17T19:29:08.798Z,98365.22
2023-01-17T19:31:42.253Z,98362.91
2023-01-17T19:34:10.558Z,98368.66
2023-01-17T19:36:39.211Z,98370.41
2023-01-17T19:39:10.454Z,98374.59
2023-01-17T19:41:41.987Z,98373.81
2023-01-17T19:44:11.767Z,98370.31
2023-01-17T19:46:39.848Z,98383.47
2023-01-17T19:49:09.760Z,98375.81
2023-01-17T19:51:39.374Z,98376.22
2023-01-17T19:54:09.028Z,98375.84
2023-01-17T19:56:36.844Z,98382.81
2023-01-17T19:59:04.696Z,98386.66
2023-01-17T20:01:34.461Z,98384.22
2023-01-17T20:04:03.567Z,98385.34
2023-01-17T20:06:33.433Z,98390.13
2023-01-17T20:09:01.626Z,98392.00
2023-01-17T20:11:30.731Z,98393.59
2023-01-17T20:13:59.940Z,98384.94
2023-01-17T20:16:30.044Z,98399.31
2023-01-17T20:18:58.297Z,98389.88
2023-01-17T20:21:27.812Z,98396.81
2023-01-17T20:23:57.158Z,98400.50
2023-01-17T20:26:31.108Z,98405.91
2023-01-17T20:29:00.516Z,98406.03
2023-01-17T20:31:30.026Z,98405.81
2023-01-17T20:33:58.099Z,98404.06
2023-01-17T20:36:28.933Z,98402.00
2023-01-17T20:38:57.130Z,98408.25
2023-01-17T20:41:26.336Z,98406.63
2023-01-17T20:43:56.292Z,98405.16
2023-01-17T20:46:27.617Z,98416.50
2023-01-17T20:48:57.660Z,98419.13
2023-01-17T20:51:27.205Z,98422.50
2023-01-17T20:53:57.123Z,98428.59
2023-01-17T20:56:25.505Z,98416.19
2023-01-17T20:58:54.117Z,98425.22
2023-01-17T21:01:22.906Z,98420.25
2023-01-17T21:03:54.049Z,98417.69
2023-01-17T21:06:24.354Z,98423.94
2023-01-17T21:08:52.981Z,98426.56
2023-01-17T21:11:23.057Z,98435.09
2023-01-17T21:13:51.389Z,98427.38
2023-01-17T21:16:22.721Z,98425.94
2023-01-17T21:18:53.719Z,98425.16
2023-01-17T21:21:23.318Z,98426.31
2023-01-17T21:23:55.690Z,98424.25
2023-01-17T21:26:26.044Z,98431.50
2023-01-17T21:28:54.958Z,98430.16
2023-01-17T21:31:25.120Z,98428.94
2023-01-17T21:33:56.220Z,98433.38
2023-01-17T21:36:25.709Z,98429.66
2023-01-17T21:38:56.952Z,98430.50
2023-01-17T21:41:28.494Z,98430.16
2023-01-17T21:43:58.424Z,98432.75
2023-01-17T21:46:27.343Z,98438.25
2023-01-17T21:48:57.669Z,98437.38
2023-01-17T21:51:42.667Z,98444.59
2023-01-17T21:54:10.680Z,98441.09
2023-01-17T21:56:58.230Z,98447.06
2023-01-17T21:59:26.110Z,98444.34
2023-01-17T22:01:59.820Z,98451.47
2023-01-17T22:04:31.831Z,98453.25
2023-01-17T22:07:03.385Z,98462.28
2023-01-17T22:09:31.255Z,98473.84
2023-01-17T22:11:59.131Z,98478.19
2023-01-17T22:14:27.011Z,98486.16
2023-01-17T22:16:54.848Z,98487.75
2023-01-17T22:19:22.634Z,98490.44
2023-01-17T22:21:51.715Z,98486.84
2023-01-17T22:24:19.413Z,98488.28
2023-01-17T22:26:47.200Z,98490.19
2023-01-17T22:29:18.304Z,98490.59
2023-01-17T22:31:46.237Z,98491.81
2023-01-17T22:34:14.179Z,98498.84
2023-01-17T22:36:42.380Z,98504.88
2023-01-17T22:39:12.155Z,98505.19
2023-01-17T22:41:40.139Z,98507.06
2023-01-17T22:44:08.436Z,98512.53
2023-01-17T22:46:38.381Z,98513.38
2023-01-17T22:49:08.286Z,98515.75
2023-01-17T22:51:36.233Z,98519.31
2023-01-17T22:54:03.933Z,98522.38
2023-01-17T22:56:34.351Z,98515.81
2023-01-17T22:59:02.578Z,98515.97
2023-01-17T23:01:32.593Z,98523.66
2023-01-17T23:04:02.744Z,98521.84
2023-01-17T23:06:32.070Z,98511.09
2023-01-17T23:09:01.643Z,98517.28
2023-01-17T23:11:38.827Z,98504.88
2023-01-17T23:14:08.836Z,98510.44
2023-01-17T23:16:54.723Z,98509.63
2023-01-17T23:19:25.430Z,98517.44
2023-01-17T23:22:13.649Z,98524.63
2023-01-17T23:24:43.951Z,98527.72
2023-01-17T23:27:31.024Z,98525.88
2023-01-17T23:30:01.177Z,98535.19
2023-01-17T23:32:29.494Z,98526.59
2023-01-17T23:34:57.258Z,98533.41
2023-01-17T23:37:50.983Z,98526.84
2023-01-17T23:40:19.328Z,98526.19
2023-01-17T23:43:04.684Z,98530.84
2023-01-17T23:45:36.976Z,98532.75
2023-01-17T23:48:09.171Z,98529.34
2023-01-17T23:50:37.751Z,98532.53
2023-01-17T23:53:08.981Z,98530.94
2023-01-17T23:55:38.261Z,98531.50
2023-01-17T23:58:07.201Z,98522.06
